createdAt,value
2019-02-18T00:00:56.714Z,8.19
2019-02-18T00:01:55.256Z,8.1
2019-02-18T00:02:53.822Z,8.02
2019-02-18T00:03:52.393Z,8.04
2019-02-18T00:04:50.918Z,7.92
2019-02-18T00:05:49.545Z,7.93
2019-02-18T00:06:48.290Z,7.86
2019-02-18T00:07:46.861Z,7.86
2019-02-18T00:08:45.385Z,7.75
2019-02-18T00:09:44.089Z,7.92
2019-02-18T00:10:42.646Z,7.97
2019-02-18T00:11:41.185Z,7.93
2019-02-18T00:12:39.794Z,7.89
2019-02-18T00:13:38.329Z,7.77
2019-02-18T00:14:36.838Z,7.87
2019-02-18T00:15:35.404Z,7.85
2019-02-18T00:16:33.929Z,7.83
2019-02-18T00:17:32.461Z,7.89
2019-02-18T00:18:31.017Z,7.95
2019-02-18T00:19:29.557Z,8.01
2019-02-18T00:20:28.229Z,7.89
2019-02-18T00:21:26.837Z,7.95
2019-02-18T00:22:25.359Z,7.89
2019-02-18T00:23:24.019Z,7.9
2019-02-18T00:24:22.635Z,8
2019-02-18T00:25:21.164Z,7.98
2019-02-18T00:26:19.870Z,7.87
2019-02-18T00:27:18.550Z,7.92
2019-02-18T00:28:17.084Z,7.98
2019-02-18T00:29:15.650Z,7.83
2019-02-18T00:30:14.225Z,7.85
2019-02-18T00:31:12.792Z,7.93
2019-02-18T00:32:11.342Z,7.8
2019-02-18T00:33:10.019Z,7.97
2019-02-18T00:34:08.707Z,7.75
2019-02-18T00:35:07.257Z,7.77
2019-02-18T00:36:06.056Z,7.49
2019-02-18T00:37:04.666Z,7.5
2019-02-18T00:38:03.193Z,7.37
2019-02-18T00:39:01.704Z,7.39
2019-02-18T00:40:00.351Z,7.42
2019-02-18T00:40:58.912Z,7.43
2019-02-18T00:41:57.469Z,7.43
2019-02-18T00:42:56.158Z,7.4
2019-02-18T00:43:54.727Z,7.46
2019-02-18T00:44:53.227Z,7.42
2019-02-18T00:45:51.825Z,7.45
2019-02-18T00:46:50.554Z,7.45
2019-02-18T00:47:49.103Z,7.42
2019-02-18T00:48:47.768Z,7.37
2019-02-18T00:49:47.349Z,7.4
2019-02-18T00:50:46.006Z,7.3
2019-02-18T00:51:44.550Z,7.3
2019-02-18T00:52:43.102Z,7.3
2019-02-18T00:53:41.637Z,7.2
2019-02-18T00:54:40.361Z,7.2
2019-02-18T00:55:38.924Z,7.17
2019-02-18T00:56:37.456Z,7.3
2019-02-18T00:57:36.012Z,7.42
2019-02-18T00:58:34.647Z,7.39
2019-02-18T00:59:33.215Z,7.28
2019-02-18T01:00:31.912Z,7.23
2019-02-18T01:01:30.564Z,7.32
2019-02-18T01:02:29.116Z,7.3
2019-02-18T01:03:27.671Z,7.42
2019-02-18T01:04:26.298Z,7.32
2019-02-18T01:05:24.891Z,7.25
2019-02-18T01:06:23.487Z,7.24
2019-02-18T01:07:22.122Z,7.25
2019-02-18T01:08:20.673Z,7.3
2019-02-18T01:09:19.227Z,7.28
2019-02-18T01:10:18.023Z,7.28
2019-02-18T01:11:16.586Z,7.45
2019-02-18T01:12:15.122Z,7.42
2019-02-18T01:13:13.808Z,7.42
2019-02-18T01:14:12.396Z,7.42
2019-02-18T01:15:10.962Z,7.57
2019-02-18T01:16:09.490Z,7.48
2019-02-18T01:17:08.052Z,7.57
2019-02-18T01:18:06.589Z,7.5
2019-02-18T01:19:05.122Z,7.52
2019-02-18T01:20:03.773Z,7.57
2019-02-18T01:21:02.653Z,7.4
2019-02-18T01:22:01.281Z,7.31
2019-02-18T01:22:59.908Z,7.34
2019-02-18T01:23:58.468Z,7.25
2019-02-18T01:24:57.010Z,7.16
2019-02-18T01:25:55.573Z,7.21
2019-02-18T01:26:54.155Z,7.21
2019-02-18T01:27:52.720Z,7.2
2019-02-18T01:28:51.252Z,7.21
2019-02-18T01:29:49.918Z,7.07
2019-02-18T01:30:48.501Z,7.03
2019-02-18T01:31:47.043Z,7.06
2019-02-18T01:32:45.920Z,7.15
2019-02-18T01:33:44.675Z,7.15
2019-02-18T01:34:43.254Z,7.1
2019-02-18T01:35:41.824Z,7.09
2019-02-18T01:36:40.425Z,7.09
2019-02-18T01:37:45.482Z,7.23
2019-02-18T01:38:37.616Z,7.16
2019-02-18T01:39:36.396Z,7.05
2019-02-18T01:40:35.095Z,7.13
2019-02-18T01:41:33.701Z,7.09
2019-02-18T01:42:32.260Z,7.13
2019-02-18T01:43:30.827Z,7.23
2019-02-18T01:44:29.594Z,7.27
2019-02-18T01:45:28.206Z,7.34
2019-02-18T01:46:26.749Z,7.31
2019-02-18T01:47:25.309Z,7.43
2019-02-18T01:48:23.980Z,7.35
2019-02-18T01:49:22.605Z,7.34
2019-02-18T01:50:21.186Z,7.46
2019-02-18T01:51:19.805Z,7.27
2019-02-18T01:52:18.414Z,7.2
2019-02-18T01:53:16.954Z,7.13
2019-02-18T01:54:15.497Z,7.17
2019-02-18T01:55:14.028Z,7.21
2019-02-18T01:56:12.582Z,7.09
2019-02-18T01:57:11.165Z,7.02
2019-02-18T01:58:09.829Z,7.02
2019-02-18T01:59:08.491Z,7.16
2019-02-18T02:00:07.040Z,7.12
2019-02-18T02:01:05.683Z,7.05
2019-02-18T02:02:04.306Z,6.98
2019-02-18T02:03:02.833Z,6.98
2019-02-18T02:04:01.372Z,6.91
2019-02-18T02:05:00.374Z,6.87
2019-02-18T02:05:58.816Z,6.74
2019-02-18T02:06:57.387Z,6.8
2019-02-18T02:07:56.759Z,6.8
2019-02-18T02:08:54.659Z,6.8
2019-02-18T02:09:53.244Z,6.76
2019-02-18T02:10:51.799Z,6.76
2019-02-18T02:11:50.460Z,6.88
2019-02-18T02:12:49.011Z,6.94
2019-02-18T02:13:47.659Z,6.81
2019-02-18T02:14:46.302Z,7.03
2019-02-18T02:15:44.859Z,7.03
2019-02-18T02:16:43.406Z,6.98
2019-02-18T02:17:41.915Z,6.87
2019-02-18T02:18:40.553Z,6.73
2019-02-18T02:19:39.039Z,6.79
2019-02-18T02:20:37.575Z,6.97
2019-02-18T02:21:36.135Z,6.77
2019-02-18T02:22:34.701Z,6.59
2019-02-18T02:23:33.253Z,6.84
2019-02-18T02:24:31.810Z,6.77
2019-02-18T02:25:30.505Z,6.76
2019-02-18T02:26:29.064Z,6.88
2019-02-18T02:27:27.639Z,6.74
2019-02-18T02:28:26.265Z,6.81
2019-02-18T02:29:24.832Z,6.69
2019-02-18T02:30:23.363Z,6.79
2019-02-18T02:31:22.117Z,6.91
2019-02-18T02:32:20.668Z,7.09
2019-02-18T02:33:19.206Z,6.97
2019-02-18T02:34:17.761Z,6.99
2019-02-18T02:35:16.312Z,6.89
2019-02-18T02:36:14.849Z,6.85
2019-02-18T02:37:15.429Z,6.73
2019-02-18T02:38:14.053Z,6.85
2019-02-18T02:39:12.656Z,6.84
2019-02-18T02:40:11.194Z,6.91
2019-02-18T02:41:09.943Z,7.02
2019-02-18T02:42:08.789Z,6.87
2019-02-18T02:43:07.271Z,6.91
2019-02-18T02:44:05.834Z,6.99
2019-02-18T02:45:04.378Z,7.12
2019-02-18T02:46:02.912Z,6.99
2019-02-18T02:47:01.456Z,7.03
2019-02-18T02:48:00.129Z,7.07
2019-02-18T02:48:58.822Z,7.1
2019-02-18T02:49:57.413Z,6.92
2019-02-18T02:50:56.106Z,7.1
2019-02-18T02:51:54.663Z,7.2
2019-02-18T02:52:53.222Z,7.12
2019-02-18T02:53:51.775Z,7.05
2019-02-18T02:54:50.370Z,7.07
2019-02-18T02:55:48.908Z,7.05
2019-02-18T02:56:47.467Z,7.09
2019-02-18T02:57:46.089Z,6.99
2019-02-18T02:58:44.690Z,7.1
2019-02-18T02:59:43.239Z,7.1
2019-02-18T03:00:41.902Z,7.15
2019-02-18T03:01:40.548Z,7.21
2019-02-18T03:02:39.080Z,7.06
2019-02-18T03:03:37.676Z,6.98
2019-02-18T03:04:36.381Z,7.02
2019-02-18T03:05:34.968Z,7.09
2019-02-18T03:06:33.524Z,6.99
2019-02-18T03:07:32.186Z,6.84
2019-02-18T03:08:30.755Z,7.03
2019-02-18T03:09:29.319Z,7.16
2019-02-18T03:10:27.852Z,7.1
2019-02-18T03:11:26.414Z,7.16
2019-02-18T03:12:24.977Z,6.89
2019-02-18T03:13:23.581Z,6.97
2019-02-18T03:14:22.371Z,7.03
2019-02-18T03:15:20.897Z,7.15
2019-02-18T03:16:19.489Z,7.1
2019-02-18T03:17:18.061Z,6.99
2019-02-18T03:18:16.617Z,6.91
2019-02-18T03:19:15.160Z,6.77
2019-02-18T03:20:13.817Z,6.73
2019-02-18T03:21:12.368Z,6.7
2019-02-18T03:22:10.914Z,6.61
2019-02-18T03:23:09.454Z,6.64
2019-02-18T03:24:07.995Z,6.69
2019-02-18T03:25:06.648Z,6.55
2019-02-18T03:26:05.220Z,6.55
2019-02-18T03:27:03.820Z,6.64
2019-02-18T03:28:02.508Z,6.62
2019-02-18T03:29:01.050Z,6.66
2019-02-18T03:29:59.602Z,6.81
2019-02-18T03:30:58.221Z,6.81
2019-02-18T03:31:56.793Z,6.92
2019-02-18T03:32:55.351Z,6.76
2019-02-18T03:33:54.011Z,6.8
2019-02-18T03:34:52.588Z,6.89
2019-02-18T03:35:51.119Z,6.84
2019-02-18T03:36:49.646Z,6.84
2019-02-18T03:37:48.199Z,6.76
2019-02-18T03:38:47.041Z,6.66
2019-02-18T03:39:45.596Z,6.67
2019-02-18T03:40:44.380Z,6.59
2019-02-18T03:41:42.939Z,6.43
2019-02-18T03:42:41.603Z,6.7
2019-02-18T03:43:40.277Z,6.64
2019-02-18T03:44:38.837Z,6.46
2019-02-18T03:45:37.407Z,6.43
2019-02-18T03:46:35.958Z,6.46
2019-02-18T03:47:34.526Z,6.31
2019-02-18T03:48:33.051Z,6.31
2019-02-18T03:49:31.701Z,6.28
2019-02-18T03:50:30.391Z,6.28
2019-02-18T03:51:28.962Z,6.27
2019-02-18T03:52:27.492Z,6.25
2019-02-18T03:53:26.260Z,6.25
2019-02-18T03:54:24.827Z,6.17
2019-02-18T03:55:23.381Z,6.18
2019-02-18T03:56:21.998Z,6.19
2019-02-18T03:57:20.556Z,6.04
2019-02-18T03:58:19.092Z,6.06
2019-02-18T03:59:17.625Z,6.09
2019-02-18T04:00:16.275Z,6.21
2019-02-18T04:01:14.706Z,6.37
2019-02-18T04:02:13.273Z,6.49
2019-02-18T04:03:12.014Z,6.33
2019-02-18T04:04:10.729Z,6.34
2019-02-18T04:05:09.288Z,6.4
2019-02-18T04:06:07.952Z,6.34
2019-02-18T04:07:06.515Z,6.36
2019-02-18T04:08:05.082Z,6.44
2019-02-18T04:09:03.629Z,6.34
2019-02-18T04:10:02.197Z,6.34
2019-02-18T04:11:00.804Z,6.37
2019-02-18T04:11:59.409Z,6.43
2019-02-18T04:12:58.020Z,6.43
2019-02-18T04:13:56.581Z,6.51
2019-02-18T04:14:55.104Z,6.61
2019-02-18T04:15:53.652Z,6.56
2019-02-18T04:16:52.351Z,6.62
2019-02-18T04:17:50.980Z,6.61
2019-02-18T04:18:49.635Z,6.66
2019-02-18T04:19:48.285Z,6.67
2019-02-18T04:20:46.947Z,6.58
2019-02-18T04:21:45.473Z,6.43
2019-02-18T04:22:44.028Z,6.48
2019-02-18T04:23:42.580Z,6.38
2019-02-18T04:24:41.120Z,6.4
2019-02-18T04:25:39.673Z,6.28
2019-02-18T04:26:38.309Z,6.3
2019-02-18T04:27:36.933Z,6.3
2019-02-18T04:28:35.460Z,6.44
2019-02-18T04:29:34.340Z,6.38
2019-02-18T04:30:32.930Z,6.59
2019-02-18T04:31:31.598Z,6.59
2019-02-18T04:32:30.187Z,6.58
2019-02-18T04:33:28.736Z,6.55
2019-02-18T04:34:27.272Z,6.59
2019-02-18T04:35:25.869Z,6.69
2019-02-18T04:36:24.465Z,6.55
2019-02-18T04:37:22.990Z,6.51
2019-02-18T04:38:21.567Z,6.64
2019-02-18T04:39:20.391Z,6.56
2019-02-18T04:40:19.032Z,6.56
2019-02-18T04:41:17.571Z,6.43
2019-02-18T04:42:16.235Z,6.69
2019-02-18T04:43:14.815Z,6.76
2019-02-18T04:44:13.382Z,6.74
2019-02-18T04:45:11.925Z,6.71
2019-02-18T04:46:10.521Z,6.62
2019-02-18T04:47:09.084Z,6.76
2019-02-18T04:48:07.652Z,6.64
2019-02-18T04:49:06.287Z,6.56
2019-02-18T04:50:04.896Z,6.44
2019-02-18T04:51:03.438Z,6.33
2019-02-18T04:52:02.129Z,6.31
2019-02-18T04:53:00.691Z,6.34
2019-02-18T04:53:59.226Z,6.36
2019-02-18T04:54:58.024Z,6.3
2019-02-18T04:55:56.625Z,6.25
2019-02-18T04:56:55.314Z,6.18
2019-02-18T04:57:54.318Z,6.06
2019-02-18T04:58:52.887Z,6.14
2019-02-18T04:59:51.406Z,6.21
2019-02-18T05:00:50.050Z,6.21
2019-02-18T05:01:48.611Z,6.22
2019-02-18T05:02:47.202Z,6.22
2019-02-18T05:03:45.739Z,6.28
2019-02-18T05:04:44.450Z,6.37
2019-02-18T05:05:42.932Z,6.33
2019-02-18T05:06:41.471Z,6.27
2019-02-18T05:07:40.166Z,6.21
2019-02-18T05:08:38.739Z,6.28
2019-02-18T05:09:39.797Z,6.31
2019-02-18T05:10:36.037Z,6.27
2019-02-18T05:11:34.670Z,6.22
2019-02-18T05:12:33.229Z,6.21
2019-02-18T05:13:31.768Z,6.28
2019-02-18T05:14:30.317Z,6.3
2019-02-18T05:15:28.857Z,6.3
2019-02-18T05:16:27.428Z,6.18
2019-02-18T05:17:26.037Z,6.12
2019-02-18T05:18:24.624Z,6.04
2019-02-18T05:19:23.187Z,5.94
2019-02-18T05:20:21.811Z,6.06
2019-02-18T05:21:20.533Z,6
2019-02-18T05:22:19.086Z,5.96
2019-02-18T05:23:17.760Z,5.96
2019-02-18T05:24:16.502Z,6.04
2019-02-18T05:25:15.041Z,6.06
2019-02-18T05:26:13.601Z,5.94
2019-02-18T05:27:12.182Z,5.99
2019-02-18T05:28:10.726Z,5.94
2019-02-18T05:29:09.305Z,5.94
2019-02-18T05:30:07.929Z,5.96
2019-02-18T05:31:06.968Z,6.09
2019-02-18T05:32:05.652Z,6.08
2019-02-18T05:33:04.200Z,6.01
2019-02-18T05:34:02.763Z,6.11
2019-02-18T05:35:01.339Z,6.14
2019-02-18T05:36:00.036Z,6.08
2019-02-18T05:36:58.576Z,5.97
2019-02-18T05:37:57.178Z,5.99
2019-02-18T05:38:55.778Z,6
2019-02-18T05:39:55.440Z,5.83
2019-02-18T05:40:53.228Z,5.97
2019-02-18T05:41:51.879Z,5.81
2019-02-18T05:42:50.623Z,5.96
2019-02-18T05:43:49.189Z,6
2019-02-18T05:44:47.699Z,6.09
2019-02-18T05:45:46.491Z,6.09
2019-02-18T05:46:45.014Z,6.03
2019-02-18T05:47:43.569Z,6
2019-02-18T05:48:42.245Z,5.96
2019-02-18T05:49:40.853Z,5.93
2019-02-18T05:50:39.383Z,5.93
2019-02-18T05:51:37.923Z,5.86
2019-02-18T05:52:36.537Z,5.89
2019-02-18T05:53:35.112Z,5.83
2019-02-18T05:54:33.816Z,5.74
2019-02-18T05:55:32.576Z,5.81
2019-02-18T05:56:31.245Z,5.89
2019-02-18T05:57:29.919Z,6.03
2019-02-18T05:58:28.604Z,6.12
2019-02-18T05:59:27.214Z,6.22
2019-02-18T06:00:25.947Z,6.3
2019-02-18T06:01:24.719Z,6.3
2019-02-18T06:02:23.235Z,6.3
2019-02-18T06:03:21.806Z,6.33
2019-02-18T06:04:20.440Z,6.36
2019-02-18T06:05:18.968Z,6.46
2019-02-18T06:06:17.536Z,6.22
2019-02-18T06:07:16.115Z,6.17
2019-02-18T06:08:14.675Z,6.18
2019-02-18T06:09:13.192Z,6.14
2019-02-18T06:10:11.708Z,6.15
2019-02-18T06:11:10.264Z,6.17
2019-02-18T06:12:08.776Z,6
2019-02-18T06:13:07.351Z,5.9
2019-02-18T06:14:05.986Z,5.99
2019-02-18T06:15:04.532Z,5.99
2019-02-18T06:16:03.121Z,5.99
2019-02-18T06:17:02.806Z,5.94
2019-02-18T06:18:00.484Z,6.03
2019-02-18T06:18:59.037Z,5.97
2019-02-18T06:19:57.575Z,6.11
2019-02-18T06:22:05.304Z,6
2019-02-18T06:23:03.956Z,6.08
2019-02-18T06:24:02.641Z,6.15
2019-02-18T06:25:01.226Z,6.14
2019-02-18T06:25:59.744Z,6.11
2019-02-18T06:26:58.311Z,5.91
2019-02-18T06:27:56.824Z,5.89
2019-02-18T06:28:55.356Z,5.94
2019-02-18T06:29:53.864Z,6
2019-02-18T06:30:54.844Z,6.21
2019-02-18T06:31:50.921Z,6.18
2019-02-18T06:32:49.451Z,6.15
2019-02-18T06:33:48.095Z,6.11
2019-02-18T06:34:46.653Z,6.18
2019-02-18T06:35:45.214Z,6.03
2019-02-18T06:36:43.763Z,6.14
2019-02-18T06:37:42.475Z,6.06
2019-02-18T06:38:41.041Z,6
2019-02-18T06:39:41.596Z,6.18
2019-02-18T06:40:38.394Z,6.21
2019-02-18T06:41:36.957Z,6.31
2019-02-18T06:42:36.400Z,6.15
2019-02-18T06:43:34.977Z,6.22
2019-02-18T06:44:33.497Z,6.18
2019-02-18T06:45:32.038Z,6.33
2019-02-18T06:46:30.612Z,6.3
2019-02-18T06:47:29.165Z,6.3
2019-02-18T06:48:27.770Z,6.4
2019-02-18T06:49:26.415Z,6.46
2019-02-18T06:50:25.129Z,6.52
2019-02-18T06:51:24.183Z,6.4
2019-02-18T06:52:22.756Z,6.43
2019-02-18T06:53:21.469Z,6.38
2019-02-18T06:54:20.150Z,6.37
2019-02-18T06:55:18.889Z,6.43
2019-02-18T06:56:17.436Z,6.46
2019-02-18T06:57:16.081Z,6.44
2019-02-18T06:58:14.718Z,6.55
2019-02-18T06:59:13.258Z,6.51
2019-02-18T07:00:11.750Z,6.66
2019-02-18T07:01:10.366Z,6.58
2019-02-18T07:02:08.919Z,6.62
2019-02-18T07:03:07.442Z,6.52
2019-02-18T07:04:06.045Z,6.48
2019-02-18T07:05:06.675Z,6.44
2019-02-18T07:06:05.366Z,6.55
2019-02-18T07:07:04.037Z,6.62
2019-02-18T07:08:02.791Z,6.55
2019-02-18T07:09:01.329Z,6.59
2019-02-18T07:09:59.881Z,6.79
2019-02-18T07:10:58.460Z,6.74
2019-02-18T07:11:57.004Z,6.8
2019-02-18T07:12:55.673Z,6.88
2019-02-18T07:13:54.350Z,6.89
2019-02-18T07:14:52.933Z,6.92
2019-02-18T07:15:51.764Z,7.1
2019-02-18T07:16:50.384Z,7.06
2019-02-18T07:17:48.979Z,7.1
2019-02-18T07:18:47.543Z,7.23
2019-02-18T07:19:46.047Z,7.32
2019-02-18T07:20:44.568Z,7.34
2019-02-18T07:21:43.112Z,7.42
2019-02-18T07:22:41.677Z,7.46
2019-02-18T07:23:40.220Z,7.69
2019-02-18T07:24:38.809Z,7.77
2019-02-18T07:25:37.365Z,7.79
2019-02-18T07:26:35.985Z,7.93
2019-02-18T07:27:34.798Z,8.07
2019-02-18T07:28:33.744Z,8.1
2019-02-18T07:29:34.052Z,8.01
2019-02-18T07:30:31.052Z,8.01
2019-02-18T07:31:29.655Z,7.87
2019-02-18T07:32:28.271Z,7.85
2019-02-18T07:33:26.814Z,7.68
2019-02-18T07:34:26.220Z,7.92
2019-02-18T07:35:24.806Z,8.1
2019-02-18T07:36:23.382Z,8.05
2019-02-18T07:37:22.091Z,8.05
2019-02-18T07:38:20.662Z,8.08
2019-02-18T07:39:19.242Z,7.97
2019-02-18T07:40:17.799Z,7.9
2019-02-18T07:41:16.383Z,7.89
2019-02-18T07:42:14.933Z,7.74
2019-02-18T07:43:13.478Z,7.75
2019-02-18T07:44:11.996Z,7.71
2019-02-18T07:45:10.537Z,7.71
2019-02-18T07:46:09.074Z,7.74
2019-02-18T07:47:07.644Z,7.86
2019-02-18T07:48:06.366Z,7.89
2019-02-18T07:49:05.040Z,7.9
2019-02-18T07:50:03.818Z,8
2019-02-18T07:51:02.506Z,8
2019-02-18T07:52:01.123Z,8.05
2019-02-18T07:52:59.671Z,8
2019-02-18T07:53:58.388Z,8.08
2019-02-18T07:54:57.026Z,8.02
2019-02-18T07:55:55.596Z,8.18
2019-02-18T07:56:54.289Z,8.1
2019-02-18T07:57:52.864Z,8.11
2019-02-18T07:58:51.398Z,8.19
2019-02-18T07:59:50.083Z,8.23
2019-02-18T08:00:48.728Z,8.25
2019-02-18T08:01:47.294Z,8.36
2019-02-18T08:02:45.826Z,8.52
2019-02-18T08:03:44.345Z,8.68
2019-02-18T08:04:42.943Z,8.37
2019-02-18T08:05:41.475Z,8.16
2019-02-18T08:06:40.111Z,8.07
2019-02-18T08:07:38.834Z,8.12
2019-02-18T08:08:37.384Z,8.12
2019-02-18T08:09:36.029Z,8.79
2019-02-18T08:10:34.606Z,9.14
2019-02-18T08:11:33.195Z,8.96
2019-02-18T08:12:31.726Z,8.91
2019-02-18T08:13:30.270Z,9.48
2019-02-18T08:14:28.854Z,9.75
2019-02-18T08:15:27.495Z,9.97
2019-02-18T08:16:26.252Z,9.79
2019-02-18T08:17:24.881Z,9.84
2019-02-18T08:18:23.365Z,9.1
2019-02-18T08:20:39.231Z,8.73
2019-02-18T08:21:37.847Z,8.83
2019-02-18T08:22:36.477Z,9.39
2019-02-18T08:23:35.022Z,9.78
2019-02-18T08:24:33.562Z,9.79
2019-02-18T08:25:32.150Z,9.68
2019-02-18T08:26:30.702Z,9.39
2019-02-18T08:27:29.269Z,9.21
2019-02-18T08:28:27.969Z,9.04
2019-02-18T08:29:26.747Z,8.83
2019-02-18T08:30:25.226Z,8.83
2019-02-18T08:31:23.746Z,8.81
2019-02-18T08:32:22.538Z,8.87
2019-02-18T08:33:21.125Z,8.89
2019-02-18T08:34:19.638Z,8.95
2019-02-18T08:35:18.250Z,8.89
2019-02-18T08:36:16.835Z,8.96
2019-02-18T08:37:15.393Z,9.05
2019-02-18T08:38:13.881Z,9.14
2019-02-18T08:39:12.464Z,9.14
2019-02-18T08:40:11.025Z,9.15
2019-02-18T08:41:09.633Z,9.11
2019-02-18T08:42:08.286Z,9.1
2019-02-18T08:43:06.938Z,9.13
2019-02-18T08:44:05.541Z,9.26
2019-02-18T08:45:04.389Z,9.21
2019-02-18T08:46:02.924Z,9.18
2019-02-18T08:47:01.461Z,9.31
2019-02-18T08:48:00.364Z,9.21
2019-02-18T08:48:58.958Z,9.31
2019-02-18T08:49:57.538Z,9.29
2019-02-18T08:50:56.303Z,9.28
2019-02-18T08:51:54.994Z,9.39
2019-02-18T08:52:53.567Z,9.38
2019-02-18T08:53:52.366Z,9.38
2019-02-18T08:54:56.428Z,9.39
2019-02-18T08:55:49.555Z,9.4
2019-02-18T08:56:48.122Z,9.43
2019-02-18T08:57:46.908Z,9.6
2019-02-18T08:58:45.503Z,9.58
2019-02-18T08:59:44.103Z,10.02
2019-02-18T09:00:42.689Z,10.18
2019-02-18T09:01:41.220Z,10.45
2019-02-18T09:02:39.776Z,10.15
2019-02-18T09:03:47.715Z,10.01
2019-02-18T09:04:46.462Z,9.94
2019-02-18T09:05:45.021Z,9.93
2019-02-18T09:06:43.547Z,9.99
2019-02-18T09:07:42.130Z,9.97
2019-02-18T09:08:40.665Z,9.86
2019-02-18T09:09:39.213Z,9.84
2019-02-18T09:10:37.900Z,9.72
2019-02-18T09:11:36.645Z,9.9
2019-02-18T09:12:35.219Z,10.07
2019-02-18T09:13:33.927Z,9.91
2019-02-18T09:14:32.590Z,10.05
2019-02-18T09:15:31.091Z,9.99
2019-02-18T09:16:29.651Z,9.97
2019-02-18T09:17:28.200Z,9.74
2019-02-18T09:18:26.865Z,9.86
2019-02-18T09:19:25.512Z,9.84
2019-02-18T09:20:25.576Z,9.76
2019-02-18T09:21:22.788Z,9.86
2019-02-18T09:22:21.387Z,9.75
2019-02-18T09:23:20.064Z,9.78
2019-02-18T09:24:19.255Z,9.79
2019-02-18T09:25:18.081Z,9.81
2019-02-18T09:26:16.763Z,9.83
2019-02-18T09:27:15.338Z,9.79
2019-02-18T09:28:13.895Z,9.84
2019-02-18T09:29:12.502Z,9.83
2019-02-18T09:30:11.050Z,9.83
2019-02-18T09:31:09.622Z,9.74
2019-02-18T09:32:08.278Z,9.89
2019-02-18T09:33:06.955Z,9.97
2019-02-18T09:34:05.547Z,9.87
2019-02-18T09:35:04.322Z,9.96
2019-02-18T09:36:02.966Z,10.14
2019-02-18T09:37:01.575Z,10.2
2019-02-18T09:38:00.215Z,10.22
2019-02-18T09:38:58.774Z,10.45
2019-02-18T09:39:57.307Z,10.23
2019-02-18T09:40:55.931Z,10.26
2019-02-18T09:41:54.793Z,10.27
2019-02-18T09:42:53.595Z,10.18
2019-02-18T09:43:52.162Z,10.22
2019-02-18T09:44:50.731Z,10.26
2019-02-18T09:45:49.252Z,10.32
2019-02-18T09:46:48.037Z,10.36
2019-02-18T09:47:46.701Z,10.38
2019-02-18T09:48:45.201Z,10.34
2019-02-18T09:49:44.055Z,10.34
2019-02-18T09:50:42.561Z,10.51
2019-02-18T09:51:41.062Z,10.33
2019-02-18T09:52:39.615Z,10.53
2019-02-18T09:53:38.212Z,10.55
2019-02-18T09:54:36.802Z,10.6
2019-02-18T09:55:35.429Z,10.6
2019-02-18T09:56:34.162Z,10.6
2019-02-18T09:57:32.837Z,10.48
2019-02-18T09:58:31.371Z,10.47
2019-02-18T09:59:29.928Z,10.55
2019-02-18T10:00:28.559Z,10.47
2019-02-18T10:01:27.193Z,10.34
2019-02-18T10:02:25.758Z,10.52
2019-02-18T10:03:31.438Z,10.6
2019-02-18T10:04:22.983Z,10.71
2019-02-18T10:05:21.541Z,10.68
2019-02-18T10:06:20.200Z,10.63
2019-02-18T10:07:18.751Z,10.79
2019-02-18T10:08:17.321Z,11.07
2019-02-18T10:09:15.881Z,11.09
2019-02-18T10:10:14.546Z,11.09
2019-02-18T10:11:13.138Z,10.94
2019-02-18T10:12:18.202Z,10.97
2019-02-18T10:13:10.529Z,10.92
2019-02-18T10:14:09.046Z,11.07
2019-02-18T10:15:07.560Z,11.02
2019-02-18T10:16:06.181Z,11
2019-02-18T10:17:04.732Z,10.89
2019-02-18T10:18:03.286Z,10.97
2019-02-18T10:19:02.024Z,10.99
2019-02-18T10:20:00.955Z,10.94
2019-02-18T10:20:59.462Z,10.97
2019-02-18T10:21:58.200Z,11.17
2019-02-18T10:22:56.775Z,11.15
2019-02-18T10:23:55.339Z,11.33
2019-02-18T10:24:54.145Z,11.15
2019-02-18T10:25:52.913Z,11.06
2019-02-18T10:26:51.536Z,10.99
2019-02-18T10:29:00.404Z,11.09
2019-02-18T10:29:59.069Z,11.18
2019-02-18T10:30:57.641Z,11.11
2019-02-18T10:31:56.175Z,11.32
2019-02-18T10:32:54.833Z,11.25
2019-02-18T10:33:53.331Z,11.18
2019-02-18T10:34:52.054Z,11.28
2019-02-18T10:35:50.719Z,11.25
2019-02-18T10:36:49.302Z,11.37
2019-02-18T10:37:54.575Z,11.47
2019-02-18T10:38:46.661Z,11.54
2019-02-18T10:39:45.248Z,11.57
2019-02-18T10:40:43.752Z,11.51
2019-02-18T10:41:42.281Z,11.55
2019-02-18T10:42:40.810Z,11.49
2019-02-18T10:43:39.414Z,11.6
2019-02-18T10:44:38.055Z,11.55
2019-02-18T10:45:36.745Z,11.54
2019-02-18T10:46:35.403Z,11.51
2019-02-18T10:47:34.105Z,11.47
2019-02-18T10:48:32.705Z,11.49
2019-02-18T10:49:31.251Z,11.51
2019-02-18T10:50:29.792Z,11.67
2019-02-18T10:51:28.369Z,11.69
2019-02-18T10:52:26.920Z,11.7
2019-02-18T10:53:25.552Z,11.69
2019-02-18T10:54:24.151Z,11.7
2019-02-18T10:55:22.862Z,11.67
2019-02-18T10:56:21.475Z,11.61
2019-02-18T10:57:20.020Z,11.7
2019-02-18T10:58:18.785Z,11.6
2019-02-18T11:00:18.421Z,11.7
2019-02-18T11:01:17.049Z,11.75
2019-02-18T11:02:15.573Z,11.79
2019-02-18T11:04:31.485Z,12.31
2019-02-18T11:05:30.036Z,12.24
2019-02-18T11:06:28.685Z,12.28
2019-02-18T11:07:27.248Z,12.21
2019-02-18T11:08:25.853Z,12.09
2019-02-18T11:09:24.513Z,12.12
2019-02-18T11:10:23.074Z,12.09
2019-02-18T11:11:21.664Z,12.05
2019-02-18T11:12:21.160Z,12.13
2019-02-18T11:13:19.732Z,12.05
2019-02-18T11:14:18.528Z,12.07
2019-02-18T11:15:17.151Z,12.1
2019-02-18T11:16:15.733Z,12.17
2019-02-18T11:17:14.314Z,12.12
2019-02-18T11:18:13.028Z,12.12
2019-02-18T11:19:11.725Z,12.12
2019-02-18T11:20:10.235Z,12.24
2019-02-18T11:21:09.004Z,12.39
2019-02-18T11:22:07.524Z,12.34
2019-02-18T11:23:06.198Z,12.28
2019-02-18T11:24:04.832Z,12.31
2019-02-18T11:25:03.398Z,12.24
2019-02-18T11:26:01.918Z,12.29
2019-02-18T11:27:00.490Z,12.28
2019-02-18T11:27:59.051Z,12.46
2019-02-18T11:28:57.580Z,12.56
2019-02-18T11:29:56.449Z,12.53
2019-02-18T11:30:55.060Z,12.46
2019-02-18T11:31:53.612Z,12.5
2019-02-18T11:32:52.320Z,12.47
2019-02-18T11:33:50.886Z,12.47
2019-02-18T11:34:49.440Z,12.56
2019-02-18T11:35:48.043Z,12.56
2019-02-18T11:36:46.704Z,12.5
2019-02-18T11:37:45.188Z,12.57
2019-02-18T11:38:43.762Z,12.57
2019-02-18T11:39:42.427Z,12.59
2019-02-18T11:40:41.129Z,12.7
2019-02-18T11:41:39.854Z,12.6
2019-02-18T11:42:38.584Z,12.65
2019-02-18T11:43:37.131Z,12.67
2019-02-18T11:44:35.678Z,12.47
2019-02-18T11:45:34.944Z,12.65
2019-02-18T11:46:32.833Z,12.67
2019-02-18T11:47:31.375Z,12.71
2019-02-18T11:48:30.857Z,12.78
2019-02-18T11:49:29.417Z,12.71
2019-02-18T11:50:28.138Z,12.68
2019-02-18T11:51:26.772Z,12.72
2019-02-18T11:52:25.326Z,12.68
2019-02-18T11:53:23.889Z,12.77
2019-02-18T11:54:22.588Z,12.85
2019-02-18T11:55:21.133Z,12.74
2019-02-18T11:56:19.690Z,12.65
2019-02-18T11:57:18.401Z,12.62
2019-02-18T11:58:17.042Z,12.65
2019-02-18T11:59:23.901Z,12.68
2019-02-18T12:00:14.303Z,12.57
2019-02-18T12:01:13.023Z,12.67
2019-02-18T12:02:11.644Z,12.56
2019-02-18T12:03:12.537Z,12.72
2019-02-18T12:04:08.998Z,12.65
2019-02-18T12:05:07.594Z,12.67
2019-02-18T12:06:06.168Z,12.67
2019-02-18T12:07:04.815Z,12.65
2019-02-18T12:08:03.366Z,12.68
2019-02-18T12:09:01.908Z,12.72
2019-02-18T12:10:00.520Z,12.67
2019-02-18T12:10:59.199Z,12.75
2019-02-18T12:11:57.831Z,12.74
2019-02-18T12:12:56.456Z,12.79
2019-02-18T12:13:55.043Z,12.7
2019-02-18T12:14:53.621Z,12.79
2019-02-18T12:15:52.214Z,12.93
2019-02-18T12:16:50.826Z,12.93
2019-02-18T12:17:49.340Z,12.95
2019-02-18T12:18:47.875Z,12.87
2019-02-18T12:19:46.562Z,12.78
2019-02-18T12:20:45.154Z,12.83
2019-02-18T12:21:43.681Z,12.77
2019-02-18T12:22:42.228Z,13
2019-02-18T12:23:40.885Z,13.25
2019-02-18T12:24:39.444Z,13.07
2019-02-18T12:25:38.035Z,13.1
2019-02-18T12:26:36.667Z,13.08
2019-02-18T12:27:35.245Z,13.05
2019-02-18T12:28:33.772Z,13.03
2019-02-18T12:29:32.460Z,12.97
2019-02-18T12:30:32.492Z,12.97
2019-02-18T12:31:29.669Z,12.97
2019-02-18T12:32:28.391Z,13
2019-02-18T12:33:26.931Z,13.07
2019-02-18T12:34:25.574Z,13.17
2019-02-18T12:35:30.730Z,13.25
2019-02-18T12:36:22.846Z,13.12
2019-02-18T12:37:21.389Z,13.19
2019-02-18T12:38:20.144Z,13.12
2019-02-18T12:39:18.645Z,13.12
2019-02-18T12:40:17.370Z,13.11
2019-02-18T12:41:15.928Z,13.2
2019-02-18T12:42:14.856Z,13.32
2019-02-18T12:43:13.485Z,13.28
2019-02-18T12:44:12.044Z,13.15
2019-02-18T12:45:10.763Z,13.19
2019-02-18T12:46:15.655Z,13.17
2019-02-18T12:47:08.023Z,13.12
2019-02-18T12:48:07.121Z,13.1
2019-02-18T12:49:05.695Z,13.17
2019-02-18T12:50:04.253Z,13.1
2019-02-18T12:51:02.791Z,13.28
2019-02-18T12:52:01.330Z,13.3
2019-02-18T12:52:59.906Z,13.36
2019-02-18T12:54:04.922Z,13.39
2019-02-18T12:54:59.980Z,13.32
2019-02-18T12:55:55.815Z,13.39
2019-02-18T12:56:54.624Z,13.32
2019-02-18T12:57:53.208Z,13.3
2019-02-18T12:59:50.424Z,13.26
2019-02-18T13:00:48.938Z,13.36
2019-02-18T13:01:47.497Z,13.26
2019-02-18T13:02:46.060Z,13.26
2019-02-18T13:03:44.749Z,13.26
2019-02-18T13:04:43.325Z,13.38